createdAt,value
2023-04-02T00:01:51.052Z,4.15
2023-04-02T00:04:20.600Z,3.72
2023-04-02T00:06:46.930Z,3.80
2023-04-02T00:09:13.204Z,3.78
2023-04-02T00:11:45.303Z,4.28
2023-04-02T00:14:24.110Z,4.30
2023-04-02T00:16:52.635Z,4.20
2023-04-02T00:19:41.810Z,3.70
2023-04-02T00:22:15.735Z,3.65
2023-04-02T00:24:42.074Z,3.33
2023-04-02T00:27:13.427Z,3.75
2023-04-02T00:29:48.222Z,3.65
2023-04-02T00:32:22.455Z,3.60
2023-04-02T00:34:49.445Z,3.83
2023-04-02T00:37:21.890Z,4.15
2023-04-02T00:39:48.286Z,3.80
2023-04-02T00:42:15.150Z,4.22
2023-04-02T00:44:44.989Z,3.25
2023-04-02T00:47:18.409Z,3.28
2023-04-02T00:49:45.127Z,2.92
2023-04-02T00:52:20.791Z,3.50
2023-04-02T00:54:52.001Z,3.05
2023-04-02T00:57:22.595Z,3.50
2023-04-02T00:59:59.181Z,3.35
2023-04-02T01:02:29.574Z,2.97
2023-04-02T01:05:00.861Z,3.50
2023-04-02T01:07:47.312Z,3.20
2023-04-02T01:10:30.180Z,3.33
2023-04-02T01:13:02.245Z,3.28
2023-04-02T01:15:55.827Z,3.53
2023-04-02T01:18:42.879Z,2.92
2023-04-02T01:21:18.538Z,3.50
2023-04-02T01:23:59.590Z,3.00
2023-04-02T01:26:25.829Z,3.03
2023-04-02T01:28:58.864Z,2.80
2023-04-02T01:31:25.876Z,3.22
2023-04-02T01:33:52.270Z,3.10
2023-04-02T01:36:31.060Z,2.65
2023-04-02T01:39:20.242Z,2.58
2023-04-02T01:42:05.523Z,2.70
2023-04-02T01:44:49.438Z,2.60
2023-04-02T01:47:18.935Z,2.55
2023-04-02T01:49:46.999Z,3.30
2023-04-02T01:52:17.869Z,3.05
2023-04-02T01:54:45.910Z,2.85
2023-04-02T01:57:13.005Z,3.10
2023-04-02T01:59:40.095Z,3.05
2023-04-02T02:02:10.979Z,2.50
2023-04-02T02:04:37.380Z,3.58
2023-04-02T02:07:04.853Z,3.00
2023-04-02T02:12:02.387Z,2.75
2023-04-02T02:14:30.661Z,2.42
2023-04-02T02:16:59.916Z,3.17
2023-04-02T02:19:31.866Z,3.58
2023-04-02T02:22:08.243Z,2.25
2023-04-02T02:24:36.334Z,2.60
2023-04-02T02:27:27.916Z,2.90
2023-04-02T02:30:04.162Z,3.10
2023-04-02T02:32:33.114Z,3.00
2023-04-02T02:35:32.016Z,3.35
2023-04-02T02:38:19.990Z,3.00
2023-04-02T02:40:52.404Z,2.92
2023-04-02T02:43:19.548Z,2.70
2023-04-02T02:45:46.917Z,3.13
2023-04-02T02:48:17.886Z,2.83
2023-04-02T02:50:44.862Z,3.03
2023-04-02T02:53:23.868Z,2.28
2023-04-02T02:55:55.460Z,2.60
2023-04-02T02:58:28.590Z,3.17
2023-04-02T03:00:55.212Z,2.50
2023-04-02T03:03:25.896Z,3.30
2023-04-02T03:05:54.795Z,2.53
2023-04-02T03:08:36.161Z,2.33
2023-04-02T03:11:31.762Z,3.05
2023-04-02T03:14:08.992Z,2.83
2023-04-02T03:16:40.437Z,3.47
2023-04-02T03:19:40.747Z,2.50
2023-04-02T03:22:21.164Z,2.63
2023-04-02T03:25:05.306Z,3.40
2023-04-02T03:27:39.808Z,2.20
2023-04-02T03:30:51.291Z,2.40
2023-04-02T03:33:35.622Z,2.00
2023-04-02T03:36:22.575Z,2.17
2023-04-02T03:39:01.468Z,1.90
2023-04-02T03:41:33.717Z,2.08
2023-04-02T03:44:04.694Z,2.45
2023-04-02T03:46:33.824Z,2.25
2023-04-02T03:49:18.393Z,2.40
2023-04-02T03:52:02.791Z,2.47
2023-04-02T03:54:29.427Z,2.38
2023-04-02T03:56:56.925Z,2.55
2023-04-02T04:02:24.686Z,2.20
2023-04-02T04:04:52.781Z,1.92
2023-04-02T04:07:30.518Z,2.15
2023-04-02T04:09:59.949Z,2.13
2023-04-02T04:12:46.995Z,2.17
2023-04-02T04:15:31.117Z,2.10
2023-04-02T04:18:08.706Z,2.22
2023-04-02T04:20:44.155Z,2.15
2023-04-02T04:23:19.373Z,2.00
2023-04-02T04:25:46.419Z,2.15
2023-04-02T04:28:29.435Z,1.88
2023-04-02T04:31:04.051Z,2.17
2023-04-02T04:33:38.754Z,2.40
2023-04-02T04:36:15.630Z,2.05
2023-04-02T04:38:47.259Z,2.13
2023-04-02T04:41:23.170Z,2.05
2023-04-02T04:44:06.337Z,1.75
2023-04-02T04:46:46.969Z,1.90
2023-04-02T04:49:22.693Z,2.05
2023-04-02T04:51:56.134Z,1.85
2023-04-02T04:54:26.257Z,1.77
2023-04-02T04:56:59.473Z,2.08
2023-04-02T04:59:31.654Z,1.83
2023-04-02T05:02:23.494Z,2.13
2023-04-02T05:04:52.463Z,1.80
2023-04-02T05:07:31.363Z,2.17
2023-04-02T05:10:21.600Z,1.77
2023-04-02T05:13:05.317Z,2.90
2023-04-02T05:15:40.717Z,2.05
2023-04-02T05:18:25.917Z,2.22
2023-04-02T05:21:05.726Z,2.10
2023-04-02T05:23:43.086Z,2.10
2023-04-02T05:26:16.565Z,2.30
2023-04-02T05:31:14.641Z,2.53
2023-04-02T05:33:46.392Z,2.47
2023-04-02T05:36:20.015Z,1.98
2023-04-02T05:38:48.144Z,2.22
2023-04-02T05:41:23.659Z,2.60
2023-04-02T05:44:10.314Z,1.85
2023-04-02T05:47:04.447Z,1.60
2023-04-02T05:49:30.778Z,1.70
2023-04-02T05:52:02.092Z,1.80
2023-04-02T05:54:39.860Z,1.92
2023-04-02T05:57:17.890Z,1.52
2023-04-02T05:59:49.509Z,1.75
2023-04-02T06:02:31.613Z,1.80
2023-04-02T06:05:14.246Z,2.25
2023-04-02T06:07:56.885Z,1.27
2023-04-02T06:10:31.053Z,1.08
2023-04-02T06:12:58.668Z,1.40
2023-04-02T06:15:25.017Z,1.40
2023-04-02T06:18:06.719Z,1.50
2023-04-02T06:20:33.469Z,1.70
2023-04-02T06:23:06.262Z,1.33
2023-04-02T06:25:44.915Z,1.50
2023-04-02T06:28:26.444Z,1.23
2023-04-02T06:30:57.654Z,1.42
2023-04-02T06:33:24.049Z,1.30
2023-04-02T06:35:52.093Z,1.48
2023-04-02T06:38:26.679Z,2.05
2023-04-02T06:40:58.616Z,1.50
2023-04-02T06:43:40.864Z,1.80
2023-04-02T06:46:13.701Z,1.88
2023-04-02T06:48:41.963Z,1.60
2023-04-02T06:51:13.872Z,1.60
2023-04-02T06:53:44.015Z,1.52
2023-04-02T06:56:22.300Z,1.40
2023-04-02T06:58:48.686Z,1.58
2023-04-02T07:01:23.695Z,1.60
2023-04-02T07:03:50.191Z,1.80
2023-04-02T07:06:19.347Z,1.55
2023-04-02T07:08:46.039Z,1.73
2023-04-02T07:11:18.730Z,1.75
2023-04-02T07:13:47.453Z,1.58
2023-04-02T07:16:16.485Z,1.15
2023-04-02T07:18:43.708Z,1.70
2023-04-02T07:21:10.427Z,1.60
2023-04-02T07:23:37.399Z,1.58
2023-04-02T07:26:05.836Z,1.67
2023-04-02T07:28:32.574Z,1.60
2023-04-02T07:30:59.013Z,1.38
2023-04-02T07:33:28.402Z,1.45
2023-04-02T07:35:56.593Z,1.38
2023-04-02T07:38:23.244Z,1.27
2023-04-02T07:40:49.948Z,1.20
2023-04-02T07:43:16.240Z,1.77
2023-04-02T07:45:42.533Z,1.38
2023-04-02T07:48:12.197Z,1.30
2023-04-02T07:50:38.532Z,1.50
2023-04-02T07:53:04.984Z,1.60
2023-04-02T07:55:31.329Z,1.40
2023-04-02T07:57:59.081Z,1.40
2023-04-02T08:00:26.399Z,1.48
2023-04-02T08:05:19.372Z,1.50
2023-04-02T08:07:55.462Z,1.25
2023-04-02T08:10:21.986Z,1.77
2023-04-02T08:12:48.288Z,1.60
2023-04-02T08:15:15.779Z,1.95
2023-04-02T08:17:42.614Z,1.48
2023-04-02T08:20:15.290Z,1.45
2023-04-02T08:22:41.570Z,1.80
2023-04-02T08:25:09.302Z,1.77
2023-04-02T08:27:35.635Z,1.70
2023-04-02T08:30:02.001Z,1.75
2023-04-02T08:32:28.335Z,1.73
2023-04-02T08:34:54.782Z,1.75
2023-04-02T08:37:21.078Z,1.70
2023-04-02T08:39:47.383Z,1.60
2023-04-02T08:42:42.119Z,1.70
2023-04-02T08:45:25.006Z,1.83
2023-04-02T08:47:54.537Z,1.50
2023-04-02T08:50:30.193Z,1.92
2023-04-02T08:52:57.348Z,1.70
2023-04-02T08:55:41.633Z,1.70
2023-04-02T08:58:36.260Z,1.67
2023-04-02T09:01:04.653Z,1.60
2023-04-02T09:03:36.450Z,1.67
2023-04-02T09:06:03.778Z,1.30
2023-04-02T09:11:23.449Z,1.48
2023-04-02T09:13:57.230Z,1.38
2023-04-02T09:16:47.856Z,2.17
2023-04-02T09:19:18.461Z,1.15
2023-04-02T09:22:14.312Z,1.70
2023-04-02T09:24:40.659Z,1.60
2023-04-02T09:27:18.435Z,1.60
2023-04-02T09:29:48.629Z,1.60
2023-04-02T09:32:39.070Z,1.50
2023-04-02T09:35:25.452Z,1.60
2023-04-02T09:38:26.486Z,1.20
2023-04-02T09:41:04.701Z,1.85
2023-04-02T09:43:35.850Z,1.35
2023-04-02T09:46:34.518Z,1.70
2023-04-02T09:49:01.526Z,1.23
2023-04-02T09:51:32.587Z,1.60
2023-04-02T09:54:04.713Z,1.70
2023-04-02T09:56:39.049Z,1.58
2023-04-02T09:59:19.540Z,1.50
2023-04-02T10:01:55.914Z,1.40
2023-04-02T10:04:49.132Z,1.50
2023-04-02T10:07:51.717Z,1.67
2023-04-02T10:10:46.321Z,1.50
2023-04-02T10:13:25.689Z,1.38
2023-04-02T10:15:58.426Z,2.30
2023-04-02T10:18:45.167Z,1.50
2023-04-02T10:21:16.065Z,2.13
2023-04-02T10:23:42.653Z,2.08
2023-04-02T10:26:11.750Z,2.05
2023-04-02T10:28:55.525Z,2.47
2023-04-02T10:31:27.344Z,2.08
2023-04-02T10:34:02.955Z,2.53
2023-04-02T10:36:47.146Z,1.90
2023-04-02T10:39:21.548Z,1.83
2023-04-02T10:42:03.554Z,1.88
2023-04-02T10:44:51.407Z,1.83
2023-04-02T10:47:50.333Z,2.17
2023-04-02T10:50:40.303Z,1.98
2023-04-02T10:53:16.022Z,1.67
2023-04-02T10:55:46.231Z,2.10
2023-04-02T10:58:22.179Z,1.85
2023-04-02T11:00:50.298Z,1.77
2023-04-02T11:03:29.661Z,1.90
2023-04-02T11:05:59.826Z,1.95
2023-04-02T11:08:28.280Z,1.90
2023-04-02T11:11:01.760Z,1.90
2023-04-02T11:14:01.111Z,2.17
2023-04-02T11:16:27.875Z,2.10
2023-04-02T11:19:16.066Z,2.05
2023-04-02T11:21:57.981Z,2.53
2023-04-02T11:24:36.169Z,2.20
2023-04-02T11:27:11.763Z,2.45
2023-04-02T11:29:50.274Z,2.72
2023-04-02T11:32:22.798Z,2.05
2023-04-02T11:35:02.987Z,1.60
2023-04-02T11:37:37.544Z,2.35
2023-04-02T11:40:26.900Z,2.22
2023-04-02T11:42:53.220Z,1.83
2023-04-02T11:45:22.268Z,1.90
2023-04-02T11:48:00.934Z,1.83
2023-04-02T11:50:41.849Z,1.88
2023-04-02T11:53:11.077Z,2.10
2023-04-02T11:55:40.102Z,1.77
2023-04-02T11:58:39.920Z,1.83
2023-04-02T12:01:06.167Z,1.92
2023-04-02T12:04:00.620Z,1.50
2023-04-02T12:06:33.575Z,1.50
2023-04-02T12:09:18.357Z,1.70
2023-04-02T12:11:45.261Z,1.50
2023-04-02T12:14:33.070Z,1.60
2023-04-02T12:16:59.559Z,1.60
2023-04-02T12:19:27.403Z,1.75
2023-04-02T12:21:53.721Z,1.52
2023-04-02T12:24:23.107Z,1.80
2023-04-02T12:27:06.164Z,2.03
2023-04-02T12:29:32.446Z,2.35
2023-04-02T12:31:59.607Z,2.08
2023-04-02T12:36:59.428Z,2.03
2023-04-02T12:39:28.104Z,1.63
2023-04-02T12:41:55.207Z,2.10
2023-04-02T12:44:24.649Z,1.85
2023-04-02T12:46:51.499Z,1.80
2023-04-02T12:49:39.210Z,1.40
2023-04-02T12:52:16.578Z,2.35
2023-04-02T12:54:54.954Z,3.88
2023-04-02T12:57:21.196Z,1.50
2023-04-02T12:59:47.744Z,1.90
2023-04-02T13:02:23.427Z,1.40
2023-04-02T13:04:52.426Z,1.95
2023-04-02T13:07:22.375Z,1.60
2023-04-02T13:09:54.115Z,1.65
2023-04-02T13:12:31.705Z,1.80
2023-04-02T13:15:00.591Z,1.40
2023-04-02T13:17:43.948Z,1.50
2023-04-02T13:20:30.156Z,1.52
2023-04-02T13:22:57.720Z,1.55
2023-04-02T13:25:32.191Z,1.30
2023-04-02T13:27:58.964Z,1.45
2023-04-02T13:30:27.520Z,1.55
2023-04-02T13:32:54.195Z,1.65
2023-04-02T13:35:21.114Z,1.48
2023-04-02T13:37:47.491Z,1.30
2023-04-02T13:40:15.949Z,1.60
2023-04-02T13:42:43.835Z,1.35
2023-04-02T13:45:32.662Z,1.17
2023-04-02T13:47:59.377Z,1.10
2023-04-02T13:50:25.727Z,1.42
2023-04-02T13:52:52.806Z,1.42
2023-04-02T13:55:22.883Z,1.60
2023-04-02T13:57:49.977Z,1.10
2023-04-02T14:00:17.040Z,1.38
2023-04-02T14:03:20.275Z,1.48
2023-04-02T14:06:13.656Z,1.20
2023-04-02T14:09:09.414Z,1.38
2023-04-02T14:12:00.292Z,1.30
2023-04-02T14:15:05.081Z,1.30
2023-04-02T14:17:58.526Z,1.48
2023-04-02T14:21:02.632Z,1.27
2023-04-02T14:23:47.660Z,1.15
2023-04-02T14:26:32.266Z,1.13
2023-04-02T14:29:23.570Z,1.45
2023-04-02T14:32:02.119Z,1.08
2023-04-02T14:34:55.409Z,1.38
2023-04-02T14:37:33.438Z,1.70
2023-04-02T14:40:12.384Z,1.65
2023-04-02T14:42:53.823Z,1.50
2023-04-02T14:45:36.999Z,1.25
2023-04-02T14:48:16.331Z,1.58
2023-04-02T14:50:43.024Z,1.20
2023-04-02T14:53:18.695Z,1.40
2023-04-02T14:55:49.099Z,1.10
2023-04-02T14:58:21.970Z,1.10
2023-04-02T15:01:00.314Z,1.13
2023-04-02T15:03:34.800Z,1.10
2023-04-02T15:06:11.729Z,1.42
2023-04-02T15:09:09.611Z,1.00
2023-04-02T15:11:39.118Z,1.38
2023-04-02T15:14:16.055Z,1.00
2023-04-02T15:16:43.903Z,1.17
2023-04-02T15:19:16.414Z,1.17
2023-04-02T15:21:55.616Z,1.10
2023-04-02T15:24:47.717Z,1.13
2023-04-02T15:27:33.994Z,1.15
2023-04-02T15:30:12.876Z,1.45
2023-04-02T15:32:40.241Z,1.05
2023-04-02T15:35:39.149Z,1.20
2023-04-02T15:38:21.931Z,1.20
2023-04-02T15:40:50.950Z,1.20
2023-04-02T15:43:32.405Z,1.30
2023-04-02T15:46:26.854Z,1.10
2023-04-02T15:49:09.998Z,1.23
2023-04-02T15:51:42.462Z,1.77
2023-04-02T15:54:21.638Z,1.25
2023-04-02T15:56:53.882Z,1.40
2023-04-02T15:59:32.407Z,1.10
2023-04-02T16:02:23.872Z,1.23
2023-04-02T16:05:17.338Z,1.35
2023-04-02T16:08:19.609Z,1.10
2023-04-02T16:10:46.109Z,1.65
2023-04-02T16:13:33.663Z,1.55
2023-04-02T16:16:19.925Z,1.33
2023-04-02T16:18:52.152Z,1.25
2023-04-02T16:21:24.232Z,1.15
2023-04-02T16:23:50.921Z,1.45
2023-04-02T16:26:52.450Z,1.38
2023-04-02T16:29:58.583Z,1.70
2023-04-02T16:32:24.878Z,1.27
2023-04-02T16:37:48.832Z,1.30
2023-04-02T16:41:06.916Z,1.42
2023-04-02T16:44:07.268Z,1.50
2023-04-02T16:46:46.865Z,1.20
2023-04-02T16:49:43.297Z,1.40
2023-04-02T16:52:29.239Z,1.35
2023-04-02T16:55:19.703Z,1.45
2023-04-02T16:58:05.024Z,1.17
2023-04-02T17:00:37.602Z,1.27
2023-04-02T17:03:26.486Z,1.20
2023-04-02T17:06:04.643Z,1.70
2023-04-02T17:08:55.993Z,1.52
2023-04-02T17:11:39.931Z,1.90
2023-04-02T17:14:21.691Z,1.50
2023-04-02T17:16:51.602Z,1.40
2023-04-02T17:19:19.423Z,1.52
2023-04-02T17:21:50.216Z,1.48
2023-04-02T17:24:25.404Z,1.52
2023-04-02T17:26:58.446Z,1.50
2023-04-02T17:29:47.816Z,1.20
2023-04-02T17:32:24.731Z,1.50
2023-04-02T17:34:51.097Z,1.85
2023-04-02T17:37:30.173Z,1.23
2023-04-02T17:40:22.023Z,1.50
2023-04-02T17:42:54.409Z,1.90
2023-04-02T17:45:37.728Z,1.58
2023-04-02T17:48:20.555Z,1.70
2023-04-02T17:51:26.977Z,1.73
2023-04-02T17:54:02.093Z,1.55
2023-04-02T17:56:53.254Z,1.42
2023-04-02T17:59:52.939Z,1.60
2023-04-02T18:02:25.260Z,1.80
2023-04-02T18:05:27.052Z,1.60
2023-04-02T18:08:11.504Z,1.40
2023-04-02T18:10:59.632Z,1.33
2023-04-02T18:13:50.842Z,1.77
2023-04-02T18:16:47.544Z,1.30
2023-04-02T18:19:18.295Z,1.38
2023-04-02T18:22:18.459Z,1.95
2023-04-02T18:25:42.737Z,1.40
2023-04-02T18:28:33.360Z,2.25
2023-04-02T18:31:08.499Z,1.63
2023-04-02T18:34:12.596Z,1.55
2023-04-02T18:36:59.754Z,2.33
2023-04-02T18:39:47.006Z,1.67
2023-04-02T18:42:34.860Z,1.33
2023-04-02T18:45:11.164Z,1.98
2023-04-02T18:48:02.085Z,1.52
2023-04-02T18:50:34.784Z,1.30
2023-04-02T18:53:17.257Z,1.30
2023-04-02T18:55:53.899Z,1.50
2023-04-02T18:58:27.980Z,1.48
2023-04-02T19:00:55.891Z,1.25
2023-04-02T19:03:28.666Z,1.05
2023-04-02T19:06:05.354Z,1.45
2023-04-02T19:08:48.304Z,1.67
2023-04-02T19:11:20.592Z,1.35
2023-04-02T19:13:46.912Z,1.50
2023-04-02T19:16:28.287Z,1.52
2023-04-02T19:19:00.622Z,1.35
2023-04-02T19:21:54.996Z,2.55
2023-04-02T19:24:30.623Z,1.45
2023-04-02T19:26:59.947Z,1.42
2023-04-02T19:30:01.408Z,1.63
2023-04-02T19:32:36.082Z,1.50
2023-04-02T19:35:23.035Z,1.80
2023-04-02T19:38:13.512Z,1.67
2023-04-02T19:40:50.692Z,1.80
2023-04-02T19:43:17.500Z,1.60
2023-04-02T19:45:47.114Z,1.38
2023-04-02T19:48:13.337Z,2.83
2023-04-02T19:50:40.236Z,1.40
2023-04-02T19:53:06.583Z,1.42
2023-04-02T19:55:33.054Z,1.40
2023-04-02T19:58:08.820Z,1.48
2023-04-02T20:00:39.449Z,1.65
2023-04-02T20:03:05.873Z,1.40
2023-04-02T20:05:32.246Z,1.13
2023-04-02T20:07:58.577Z,1.45
2023-04-02T20:10:24.902Z,1.55
2023-04-02T20:12:51.191Z,1.67
2023-04-02T20:15:17.506Z,1.60
2023-04-02T20:17:43.877Z,1.52
2023-04-02T20:20:10.949Z,1.67
2023-04-02T20:22:37.272Z,1.85
2023-04-02T20:25:03.740Z,1.42
2023-04-02T20:27:30.583Z,1.67
2023-04-02T20:29:56.883Z,1.50
2023-04-02T20:32:23.274Z,1.30
2023-04-02T20:34:49.751Z,1.15
2023-04-02T20:37:16.090Z,1.23
2023-04-02T20:39:42.397Z,1.73
2023-04-02T20:42:08.702Z,1.60
2023-04-02T20:44:35.750Z,1.70
2023-04-02T20:47:02.047Z,1.52
2023-04-02T20:49:28.355Z,1.40
2023-04-02T20:51:54.676Z,1.63
2023-04-02T20:54:21.016Z,1.77
2023-04-02T20:56:47.324Z,1.38
2023-04-02T20:59:13.632Z,1.42
2023-04-02T21:01:40.038Z,1.33
2023-04-02T21:04:06.624Z,1.58
2023-04-02T21:06:35.946Z,1.20
2023-04-02T21:09:06.322Z,1.77
2023-04-02T21:11:35.615Z,1.55
2023-04-02T21:14:02.142Z,1.40
2023-04-02T21:16:30.112Z,1.48
2023-04-02T21:18:58.595Z,2.55
2023-04-02T21:21:25.673Z,1.45
2023-04-02T21:23:56.798Z,1.15
2023-04-02T21:26:23.630Z,1.40
2023-04-02T21:28:50.010Z,1.88
2023-04-02T21:31:28.289Z,1.65
2023-04-02T21:33:56.997Z,1.20
2023-04-02T21:36:26.168Z,1.02
2023-04-02T21:38:55.358Z,2.00
2023-04-02T21:41:29.302Z,1.40
2023-04-02T21:43:57.506Z,1.10
2023-04-02T21:46:27.063Z,1.63
2023-04-02T21:48:55.863Z,1.50
2023-04-02T21:51:24.847Z,1.25
2023-04-02T21:53:51.563Z,1.42
2023-04-02T21:56:21.105Z,1.38
2023-04-02T21:58:48.501Z,1.30
2023-04-02T22:01:26.758Z,1.75
2023-04-02T22:03:55.240Z,1.45
2023-04-02T22:06:23.102Z,1.23
2023-04-02T22:08:55.410Z,1.40
2023-04-02T22:11:25.019Z,1.58
2023-04-02T22:13:52.257Z,1.50
2023-04-02T22:16:21.184Z,1.90
2023-04-02T22:18:48.748Z,1.75
2023-04-02T22:21:15.890Z,2.17
2023-04-02T22:23:43.682Z,1.70
2023-04-02T22:26:12.047Z,1.65
2023-04-02T22:28:38.784Z,1.60
2023-04-02T22:31:11.998Z,2.22
2023-04-02T22:33:39.286Z,1.40
2023-04-02T22:36:06.033Z,1.92
2023-04-02T22:38:33.074Z,1.48
2023-04-02T22:41:10.951Z,1.30
2023-04-02T22:43:38.246Z,1.20
2023-04-02T22:46:05.857Z,1.77
2023-04-02T22:48:32.457Z,1.08
2023-04-02T22:50:58.804Z,1.70
2023-04-02T22:53:25.401Z,1.60
2023-04-02T22:55:51.698Z,1.58
2023-04-02T22:58:18.934Z,1.52
2023-04-02T23:00:45.934Z,1.40
2023-04-02T23:03:12.325Z,1.80
2023-04-02T23:05:38.695Z,1.60
2023-04-02T23:08:05.672Z,1.77
2023-04-02T23:10:32.638Z,1.45
2023-04-02T23:12:58.984Z,1.65
2023-04-02T23:15:25.369Z,1.48
2023-04-02T23:17:51.723Z,1.40
2023-04-02T23:20:18.162Z,1.42
2023-04-02T23:22:44.453Z,1.55
2023-04-02T23:25:10.848Z,1.30
2023-04-02T23:27:37.158Z,1.42
2023-04-02T23:30:04.244Z,1.30
2023-04-02T23:32:30.631Z,1.33
2023-04-02T23:34:56.959Z,1.38
2023-04-02T23:37:23.279Z,1.30
2023-04-02T23:39:49.665Z,1.75
2023-04-02T23:42:15.957Z,1.52
2023-04-02T23:44:42.276Z,1.20
2023-04-02T23:47:09.035Z,1.10
2023-04-02T23:49:35.465Z,1.08
2023-04-02T23:52:01.740Z,1.90
2023-04-02T23:54:28.228Z,1.33
2023-04-02T23:56:54.544Z,1.40
2023-04-02T23:59:20.884Z,1.80
